sensor_id;sensor_type;location;lat;lon;timestamp;pressure;altitude;pressure_sealevel;temperature
74060;BMP280;62414;53.436;8.828;2022-11-03T00:00:43;101385.84;;;8.49
74060;BMP280;62414;53.436;8.828;2022-11-03T00:03:08;101382.38;;;8.48
74060;BMP280;62414;53.436;8.828;2022-11-03T00:05:34;101393.94;;;8.49
74060;BMP280;62414;53.436;8.828;2022-11-03T00:08:00;101386.25;;;8.51
74060;BMP280;62414;53.436;8.828;2022-11-03T00:10:26;101387.38;;;8.53
74060;BMP280;62414;53.436;8.828;2022-11-03T00:12:52;101380.84;;;8.54
74060;BMP280;62414;53.436;8.828;2022-11-03T00:15:17;101369.97;;;8.58
74060;BMP280;62414;53.436;8.828;2022-11-03T00:17:46;101375.75;;;8.63
74060;BMP280;62414;53.436;8.828;2022-11-03T00:20:11;101372.66;;;8.65
74060;BMP280;62414;53.436;8.828;2022-11-03T00:22:37;101377.59;;;8.70
74060;BMP280;62414;53.436;8.828;2022-11-03T00:25:02;101373.72;;;8.75
74060;BMP280;62414;53.436;8.828;2022-11-03T00:27:28;101368.66;;;8.77
74060;BMP280;62414;53.436;8.828;2022-11-03T00:29:53;101368.25;;;8.78
74060;BMP280;62414;53.436;8.828;2022-11-03T00:32:19;101358.22;;;8.82
74060;BMP280;62414;53.436;8.828;2022-11-03T00:34:46;101359.34;;;8.85
74060;BMP280;62414;53.436;8.828;2022-11-03T00:37:11;101364.69;;;8.88
74060;BMP280;62414;53.436;8.828;2022-11-03T00:39:36;101371.63;;;8.89
74060;BMP280;62414;53.436;8.828;2022-11-03T00:42:02;101360.81;;;8.89
74060;BMP280;62414;53.436;8.828;2022-11-03T00:44:28;101353.50;;;8.90
74060;BMP280;62414;53.436;8.828;2022-11-03T00:46:53;101348.84;;;8.90
74060;BMP280;62414;53.436;8.828;2022-11-03T00:49:18;101353.09;;;8.91
74060;BMP280;62414;53.436;8.828;2022-11-03T00:51:45;101344.59;;;8.93
74060;BMP280;62414;53.436;8.828;2022-11-03T00:54:11;101347.69;;;8.91
74060;BMP280;62414;53.436;8.828;2022-11-03T00:56:37;101347.72;;;8.88
74060;BMP280;62414;53.436;8.828;2022-11-03T00:59:04;101338.50;;;8.85
74060;BMP280;62414;53.436;8.828;2022-11-03T01:01:32;101323.47;;;8.84
74060;BMP280;62414;53.436;8.828;2022-11-03T01:03:58;101317.63;;;8.86
74060;BMP280;62414;53.436;8.828;2022-11-03T01:06:23;101325.38;;;8.87
74060;BMP280;62414;53.436;8.828;2022-11-03T01:08:50;101322.66;;;8.87
74060;BMP280;62414;53.436;8.828;2022-11-03T01:11:17;101323.03;;;8.89
74060;BMP280;62414;53.436;8.828;2022-11-03T01:13:43;101313.38;;;8.92
74060;BMP280;62414;53.436;8.828;2022-11-03T01:16:08;101311.44;;;8.92
74060;BMP280;62414;53.436;8.828;2022-11-03T01:18:34;101315.28;;;8.91
74060;BMP280;62414;53.436;8.828;2022-11-03T01:20:59;101313.75;;;8.90
74060;BMP280;62414;53.436;8.828;2022-11-03T01:23:24;101302.56;;;8.92
74060;BMP280;62414;53.436;8.828;2022-11-03T01:25:51;101302.56;;;8.92
74060;BMP280;62414;53.436;8.828;2022-11-03T01:28:17;101289.84;;;8.92
74060;BMP280;62414;53.436;8.828;2022-11-03T01:30:42;101294.09;;;8.90
74060;BMP280;62414;53.436;8.828;2022-11-03T01:33:07;101285.56;;;8.91
74060;BMP280;62414;53.436;8.828;2022-11-03T01:35:33;101290.97;;;8.91
74060;BMP280;62414;53.436;8.828;2022-11-03T01:37:58;101304.09;;;8.93
74060;BMP280;62414;53.436;8.828;2022-11-03T01:40:24;101312.19;;;8.93
74060;BMP280;62414;53.436;8.828;2022-11-03T01:42:50;101323.00;;;8.93
74060;BMP280;62414;53.436;8.828;2022-11-03T01:45:16;101305.28;;;8.92
74060;BMP280;62414;53.436;8.828;2022-11-03T01:47:42;101301.41;;;8.93
74060;BMP280;62414;53.436;8.828;2022-11-03T01:50:10;101301.00;;;8.94
74060;BMP280;62414;53.436;8.828;2022-11-03T01:52:38;101297.53;;;8.94
74060;BMP280;62414;53.436;8.828;2022-11-03T01:55:08;101283.97;;;8.98
74060;BMP280;62414;53.436;8.828;2022-11-03T01:57:37;101278.16;;;8.99
74060;BMP280;62414;53.436;8.828;2022-11-03T02:00:07;101254.59;;;9.03
74060;BMP280;62414;53.436;8.828;2022-11-03T02:02:39;101243.78;;;9.03
74060;BMP280;62414;53.436;8.828;2022-11-03T02:05:06;101236.47;;;9.04
74060;BMP280;62414;53.436;8.828;2022-11-03T02:07:34;101255.78;;;9.02
74060;BMP280;62414;53.436;8.828;2022-11-03T02:10:03;101246.53;;;9.00
74060;BMP280;62414;53.436;8.828;2022-11-03T02:12:28;101244.22;;;8.98
74060;BMP280;62414;53.436;8.828;2022-11-03T02:14:57;101243.06;;;8.99
74060;BMP280;62414;53.436;8.828;2022-11-03T02:17:28;101245.75;;;8.99
74060;BMP280;62414;53.436;8.828;2022-11-03T02:19:56;101248.88;;;8.98
74060;BMP280;62414;53.436;8.828;2022-11-03T02:22:34;101245.06;;;8.95
74060;BMP280;62414;53.436;8.828;2022-11-03T02:25:13;101229.25;;;8.93
74060;BMP280;62414;53.436;8.828;2022-11-03T02:27:40;101242.44;;;8.88
74060;BMP280;62414;53.436;8.828;2022-11-03T02:30:07;101243.25;;;8.85
74060;BMP280;62414;53.436;8.828;2022-11-03T02:32:40;101230.94;;;8.80
74060;BMP280;62414;53.436;8.828;2022-11-03T02:35:11;101227.91;;;8.78
74060;BMP280;62414;53.436;8.828;2022-11-03T02:37:41;101212.53;;;8.72
74060;BMP280;62414;53.436;8.828;2022-11-03T02:40:12;101217.16;;;8.71
74060;BMP280;62414;53.436;8.828;2022-11-03T02:42:41;101216.41;;;8.71
74060;BMP280;62414;53.436;8.828;2022-11-03T02:45:09;101212.97;;;8.66
74060;BMP280;62414;53.436;8.828;2022-11-03T02:47:36;101208.81;;;8.62
74060;BMP280;62414;53.436;8.828;2022-11-03T02:50:05;101211.91;;;8.60
74060;BMP280;62414;53.436;8.828;2022-11-03T02:52:37;101201.56;;;8.55
74060;BMP280;62414;53.436;8.828;2022-11-03T02:55:08;101195.72;;;8.57
74060;BMP280;62414;53.436;8.828;2022-11-03T02:57:39;101198.09;;;8.55
74060;BMP280;62414;53.436;8.828;2022-11-03T03:00:09;101190.41;;;8.53
74060;BMP280;62414;53.436;8.828;2022-11-03T03:02:38;101195.78;;;8.53
74060;BMP280;62414;53.436;8.828;2022-11-03T03:05:07;101191.56;;;8.52
74060;BMP280;62414;53.436;8.828;2022-11-03T03:07:37;101185.81;;;8.50
74060;BMP280;62414;53.436;8.828;2022-11-03T03:10:06;101180.41;;;8.50
74060;BMP280;62414;53.436;8.828;2022-11-03T03:12:34;101179.25;;;8.48
74060;BMP280;62414;53.436;8.828;2022-11-03T03:15:01;101183.56;;;8.45
74060;BMP280;62414;53.436;8.828;2022-11-03T03:17:33;101189.28;;;8.47
74060;BMP280;62414;53.436;8.828;2022-11-03T03:20:04;101171.56;;;8.46
74060;BMP280;62414;53.436;8.828;2022-11-03T03:22:35;101171.22;;;8.44
74060;BMP280;62414;53.436;8.828;2022-11-03T03:25:09;101154.69;;;8.42
74060;BMP280;62414;53.436;8.828;2022-11-03T03:27:38;101151.22;;;8.42
74060;BMP280;62414;53.436;8.828;2022-11-03T03:30:07;101147.75;;;8.41
74060;BMP280;62414;53.436;8.828;2022-11-03T03:32:37;101142.38;;;8.41
74060;BMP280;62414;53.436;8.828;2022-11-03T03:35:05;101149.63;;;8.44
74060;BMP280;62414;53.436;8.828;2022-11-03T03:37:34;101137.72;;;8.42
74060;BMP280;62414;53.436;8.828;2022-11-03T03:40:02;101135.06;;;8.38
74060;BMP280;62414;53.436;8.828;2022-11-03T03:42:29;101133.53;;;8.37
74060;BMP280;62414;53.436;8.828;2022-11-03T03:44:56;101131.66;;;8.34
74060;BMP280;62414;53.436;8.828;2022-11-03T03:47:25;101122.44;;;8.31
74060;BMP280;62414;53.436;8.828;2022-11-03T03:49:53;101134.00;;;8.32
74060;BMP280;62414;53.436;8.828;2022-11-03T03:52:19;101128.19;;;8.33
74060;BMP280;62414;53.436;8.828;2022-11-03T03:54:44;101133.94;;;8.35
74060;BMP280;62414;53.436;8.828;2022-11-03T03:57:12;101130.50;;;8.35
74060;BMP280;62414;53.436;8.828;2022-11-03T03:59:38;101128.13;;;8.37
74060;BMP280;62414;53.436;8.828;2022-11-03T04:02:04;101131.19;;;8.39
74060;BMP280;62414;53.436;8.828;2022-11-03T04:04:29;101130.44;;;8.38
74060;BMP280;62414;53.436;8.828;2022-11-03T04:06:56;101136.22;;;8.37
74060;BMP280;62414;53.436;8.828;2022-11-03T04:09:22;101132.00;;;8.36
74060;BMP280;62414;53.436;8.828;2022-11-03T04:11:47;101137.81;;;8.34
74060;BMP280;62414;53.436;8.828;2022-11-03T04:14:12;101137.03;;;8.34
74060;BMP280;62414;53.436;8.828;2022-11-03T04:16:38;101143.59;;;8.33
74060;BMP280;62414;53.436;8.828;2022-11-03T04:19:03;101138.22;;;8.33
74060;BMP280;62414;53.436;8.828;2022-11-03T04:21:29;101136.69;;;8.32
74060;BMP280;62414;53.436;8.828;2022-11-03T04:23:56;101125.53;;;8.30
74060;BMP280;62414;53.436;8.828;2022-11-03T04:26:22;101130.91;;;8.30
74060;BMP280;62414;53.436;8.828;2022-11-03T04:28:48;101122.81;;;8.30
74060;BMP280;62414;53.436;8.828;2022-11-03T04:31:16;101124.75;;;8.29
74060;BMP280;62414;53.436;8.828;2022-11-03T04:33:42;101123.19;;;8.32
74060;BMP280;62414;53.436;8.828;2022-11-03T04:36:11;101115.53;;;8.30
74060;BMP280;62414;53.436;8.828;2022-11-03T04:38:38;101115.88;;;8.32
74060;BMP280;62414;53.436;8.828;2022-11-03T04:41:12;101111.66;;;8.31
74060;BMP280;62414;53.436;8.828;2022-11-03T04:43:38;101122.44;;;8.31
74060;BMP280;62414;53.436;8.828;2022-11-03T04:46:07;101114.38;;;8.28
74060;BMP280;62414;53.436;8.828;2022-11-03T04:48:34;101100.09;;;8.31
74060;BMP280;62414;53.436;8.828;2022-11-03T04:51:01;101099.69;;;8.32
74060;BMP280;62414;53.436;8.828;2022-11-03T04:53:34;101096.19;;;8.35
74060;BMP280;62414;53.436;8.828;2022-11-03T04:55:59;101099.63;;;8.36
74060;BMP280;62414;53.436;8.828;2022-11-03T04:58:31;101103.06;;;8.40
74060;BMP280;62414;53.436;8.828;2022-11-03T05:00:59;101094.16;;;8.43
74060;BMP280;62414;53.436;8.828;2022-11-03T05:03:27;101090.28;;;8.44
74060;BMP280;62414;53.436;8.828;2022-11-03T05:05:53;101088.38;;;8.45
74060;BMP280;62414;53.436;8.828;2022-11-03T05:08:20;101086.44;;;8.45
74060;BMP280;62414;53.436;8.828;2022-11-03T05:10:46;101085.25;;;8.46
74060;BMP280;62414;53.436;8.828;2022-11-03T05:13:16;101080.19;;;8.48
74060;BMP280;62414;53.436;8.828;2022-11-03T05:15:45;101080.63;;;8.47
74060;BMP280;62414;53.436;8.828;2022-11-03T05:18:16;101075.97;;;8.47
74060;BMP280;62414;53.436;8.828;2022-11-03T05:20:47;101070.97;;;8.49
74060;BMP280;62414;53.436;8.828;2022-11-03T05:23:13;101077.47;;;8.52
74060;BMP280;62414;53.436;8.828;2022-11-03T05:25:41;101066.69;;;8.52
74060;BMP280;62414;53.436;8.828;2022-11-03T05:28:18;101063.22;;;8.51
74060;BMP280;62414;53.436;8.828;2022-11-03T05:30:46;101060.88;;;8.53
74060;BMP280;62414;53.436;8.828;2022-11-03T05:33:18;101060.81;;;8.57
74060;BMP280;62414;53.436;8.828;2022-11-03T05:35:45;101053.47;;;8.57
74060;BMP280;62414;53.436;8.828;2022-11-03T05:38:14;101052.34;;;8.58
74060;BMP280;62414;53.436;8.828;2022-11-03T05:40:39;101041.53;;;8.58
74060;BMP280;62414;53.436;8.828;2022-11-03T05:43:07;101036.50;;;8.60
74060;BMP280;62414;53.436;8.828;2022-11-03T05:45:36;101035.69;;;8.63
74060;BMP280;62414;53.436;8.828;2022-11-03T05:48:12;101040.25;;;8.66
74060;BMP280;62414;53.436;8.828;2022-11-03T05:50:39;101030.97;;;8.68
74060;BMP280;62414;53.436;8.828;2022-11-03T05:53:16;101023.72;;;8.64
74060;BMP280;62414;53.436;8.828;2022-11-03T05:55:43;101020.66;;;8.62
74060;BMP280;62414;53.436;8.828;2022-11-03T05:58:17;101011.41;;;8.63
74060;BMP280;62414;53.436;8.828;2022-11-03T06:00:45;101015.19;;;8.66
74060;BMP280;62414;53.436;8.828;2022-11-03T06:03:14;101004.84;;;8.64
74060;BMP280;62414;53.436;8.828;2022-11-03T06:05:40;101008.72;;;8.63
74060;BMP280;62414;53.436;8.828;2022-11-03T06:08:12;101009.47;;;8.64
74060;BMP280;62414;53.436;8.828;2022-11-03T06:10:40;100998.69;;;8.64
74060;BMP280;62414;53.436;8.828;2022-11-03T06:13:14;101002.16;;;8.64
74060;BMP280;62414;53.436;8.828;2022-11-03T06:15:41;101000.63;;;8.63
74060;BMP280;62414;53.436;8.828;2022-11-03T06:18:15;100997.91;;;8.63
74060;BMP280;62414;53.436;8.828;2022-11-03T06:20:41;100995.59;;;8.62
74060;BMP280;62414;53.436;8.828;2022-11-03T06:23:08;100992.16;;;8.61
74060;BMP280;62414;53.436;8.828;2022-11-03T06:25:36;100990.91;;;8.66
74060;BMP280;62414;53.436;8.828;2022-11-03T06:28:04;100984.78;;;8.65
74060;BMP280;62414;53.436;8.828;2022-11-03T06:30:31;100988.97;;;8.66
74060;BMP280;62414;53.436;8.828;2022-11-03T06:32:58;100973.16;;;8.69
74060;BMP280;62414;53.436;8.828;2022-11-03T06:35:26;100981.25;;;8.69
74060;BMP280;62414;53.436;8.828;2022-11-03T06:37:52;100973.53;;;8.67
74060;BMP280;62414;53.436;8.828;2022-11-03T06:40:33;100982.81;;;8.66
74060;BMP280;62414;53.436;8.828;2022-11-03T06:43:09;100969.69;;;8.68
74060;BMP280;62414;53.436;8.828;2022-11-03T06:45:38;100972.31;;;8.72
74060;BMP280;62414;53.436;8.828;2022-11-03T06:48:10;100980.03;;;8.73
74060;BMP280;62414;53.436;8.828;2022-11-03T06:50:40;100971.47;;;8.78
74060;BMP280;62414;53.436;8.828;2022-11-03T06:53:08;100973.31;;;8.81
74060;BMP280;62414;53.436;8.828;2022-11-03T06:55:35;100971.38;;;8.82
74060;BMP280;62414;53.436;8.828;2022-11-03T06:58:06;100969.81;;;8.84
74060;BMP280;62414;53.436;8.828;2022-11-03T07:00:38;100970.94;;;8.87
74060;BMP280;62414;53.436;8.828;2022-11-03T07:03:07;100961.25;;;8.89
74060;BMP280;62414;53.436;8.828;2022-11-03T07:05:33;100958.13;;;8.91
74060;BMP280;62414;53.436;8.828;2022-11-03T07:08:02;100971.13;;;8.96
74060;BMP280;62414;53.436;8.828;2022-11-03T07:10:30;100962.22;;;8.99
74060;BMP280;62414;53.436;8.828;2022-11-03T07:12:58;100949.50;;;9.00
74060;BMP280;62414;53.436;8.828;2022-11-03T07:15:27;100954.09;;;9.03
74060;BMP280;62414;53.436;8.828;2022-11-03T07:17:54;100952.50;;;9.05
74060;BMP280;62414;53.436;8.828;2022-11-03T07:20:20;100961.66;;;9.11
74060;BMP280;62414;53.436;8.828;2022-11-03T07:22:46;100948.00;;;9.18
74060;BMP280;62414;53.436;8.828;2022-11-03T07:25:15;100956.47;;;9.20
74060;BMP280;62414;53.436;8.828;2022-11-03T07:27:42;100950.91;;;9.28
74060;BMP280;62414;53.436;8.828;2022-11-03T07:30:15;100947.00;;;9.32
74060;BMP280;62414;53.436;8.828;2022-11-03T07:32:41;100949.25;;;9.34
74060;BMP280;62414;53.436;8.828;2022-11-03T07:35:19;100949.56;;;9.39
74060;BMP280;62414;53.436;8.828;2022-11-03T07:37:49;100945.53;;;9.47
74060;BMP280;62414;53.436;8.828;2022-11-03T07:40:21;100939.63;;;9.52
74060;BMP280;62414;53.436;8.828;2022-11-03T07:42:46;100946.88;;;9.59
74060;BMP280;62414;53.436;8.828;2022-11-03T07:45:34;100945.88;;;9.69
74060;BMP280;62414;53.436;8.828;2022-11-03T07:48:09;100946.50;;;9.77
74060;BMP280;62414;53.436;8.828;2022-11-03T07:50:37;100946.28;;;9.88
74060;BMP280;62414;53.436;8.828;2022-11-03T07:53:08;100939.84;;;9.98
74060;BMP280;62414;53.436;8.828;2022-11-03T07:55:37;100941.56;;;10.08
74060;BMP280;62414;53.436;8.828;2022-11-03T07:58:15;100941.75;;;10.17
74060;BMP280;62414;53.436;8.828;2022-11-03T08:00:42;100937.69;;;10.25
74060;BMP280;62414;53.436;8.828;2022-11-03T08:03:20;100934.81;;;10.32
74060;BMP280;62414;53.436;8.828;2022-11-03T08:05:46;100937.69;;;10.42
74060;BMP280;62414;53.436;8.828;2022-11-03T08:08:11;100931.38;;;10.48
74060;BMP280;62414;53.436;8.828;2022-11-03T08:10:38;100920.88;;;10.50
74060;BMP280;62414;53.436;8.828;2022-11-03T08:13:03;100931.69;;;10.50
74060;BMP280;62414;53.436;8.828;2022-11-03T08:15:29;100929.75;;;10.51
74060;BMP280;62414;53.436;8.828;2022-11-03T08:17:54;100925.44;;;10.53
74060;BMP280;62414;53.436;8.828;2022-11-03T08:20:19;100922.97;;;10.59
74060;BMP280;62414;53.436;8.828;2022-11-03T08:22:45;100912.09;;;10.62
74060;BMP280;62414;53.436;8.828;2022-11-03T08:25:10;100910.00;;;10.66
74060;BMP280;62414;53.436;8.828;2022-11-03T08:27:37;100909.19;;;10.70
74060;BMP280;62414;53.436;8.828;2022-11-03T08:30:03;100913.63;;;10.76
74060;BMP280;62414;53.436;8.828;2022-11-03T08:32:28;100906.53;;;10.82
74060;BMP280;62414;53.436;8.828;2022-11-03T08:34:54;100908.25;;;10.89
74060;BMP280;62414;53.436;8.828;2022-11-03T08:37:19;100893.88;;;10.92
74060;BMP280;62414;53.436;8.828;2022-11-03T08:39:45;100895.13;;;11.04
74060;BMP280;62414;53.436;8.828;2022-11-03T08:42:10;100893.28;;;11.13
74060;BMP280;62414;53.436;8.828;2022-11-03T08:44:37;100888.53;;;11.17
74060;BMP280;62414;53.436;8.828;2022-11-03T08:47:02;100876.97;;;11.30
74060;BMP280;62414;53.436;8.828;2022-11-03T08:49:28;100886.53;;;11.34
74060;BMP280;62414;53.436;8.828;2022-11-03T08:51:53;100885.22;;;11.51
74060;BMP280;62414;53.436;8.828;2022-11-03T08:54:18;100878.53;;;11.56
74060;BMP280;62414;53.436;8.828;2022-11-03T08:56:44;100878.41;;;11.60
74060;BMP280;62414;53.436;8.828;2022-11-03T08:59:09;100878.31;;;11.63
74060;BMP280;62414;53.436;8.828;2022-11-03T09:01:36;100879.09;;;11.76
74060;BMP280;62414;53.436;8.828;2022-11-03T09:04:01;100870.50;;;11.78
74060;BMP280;62414;53.436;8.828;2022-11-03T09:06:27;100865.72;;;11.82
74060;BMP280;62414;53.436;8.828;2022-11-03T09:08:52;100872.66;;;11.83
74060;BMP280;62414;53.436;8.828;2022-11-03T09:11:18;100870.38;;;11.81
74060;BMP280;62414;53.436;8.828;2022-11-03T09:13:43;100859.53;;;11.81
74060;BMP280;62414;53.436;8.828;2022-11-03T09:16:09;100856.59;;;11.89
74060;BMP280;62414;53.436;8.828;2022-11-03T09:18:35;100851.91;;;11.89
74060;BMP280;62414;53.436;8.828;2022-11-03T09:21:01;100863.03;;;11.95
74060;BMP280;62414;53.436;8.828;2022-11-03T09:23:26;100868.44;;;11.95
74060;BMP280;62414;53.436;8.828;2022-11-03T09:25:52;100868.31;;;11.98
74060;BMP280;62414;53.436;8.828;2022-11-03T09:28:17;100856.25;;;11.99
74060;BMP280;62414;53.436;8.828;2022-11-03T09:30:42;100851.94;;;12.02
74060;BMP280;62414;53.436;8.828;2022-11-03T09:33:08;100841.72;;;12.06
74060;BMP280;62414;53.436;8.828;2022-11-03T09:35:35;100855.78;;;12.13
74060;BMP280;62414;53.436;8.828;2022-11-03T09:38:00;100844.72;;;12.21
74060;BMP280;62414;53.436;8.828;2022-11-03T09:40:26;100842.53;;;12.28
74060;BMP280;62414;53.436;8.828;2022-11-03T09:42:51;100838.63;;;12.29
74060;BMP280;62414;53.436;8.828;2022-11-03T09:45:17;100843.56;;;12.31
74060;BMP280;62414;53.436;8.828;2022-11-03T09:47:43;100831.41;;;12.35
74060;BMP280;62414;53.436;8.828;2022-11-03T09:50:12;100840.09;;;12.43
74060;BMP280;62414;53.436;8.828;2022-11-03T09:52:39;100833.16;;;12.42
74060;BMP280;62414;53.436;8.828;2022-11-03T09:55:12;100836.63;;;12.42
74060;BMP280;62414;53.436;8.828;2022-11-03T09:57:37;100828.97;;;12.50
74060;BMP280;62414;53.436;8.828;2022-11-03T10:00:06;100825.81;;;12.52
74060;BMP280;62414;53.436;8.828;2022-11-03T10:02:35;100824.34;;;12.60
74060;BMP280;62414;53.436;8.828;2022-11-03T10:05:01;100819.91;;;12.75
74060;BMP280;62414;53.436;8.828;2022-11-03T10:07:27;100816.34;;;12.78
74060;BMP280;62414;53.436;8.828;2022-11-03T10:09:56;100817.56;;;12.86
74060;BMP280;62414;53.436;8.828;2022-11-03T10:12:23;100826.03;;;12.88
74060;BMP280;62414;53.436;8.828;2022-11-03T10:14:50;100820.50;;;12.92
74060;BMP280;62414;53.436;8.828;2022-11-03T10:17:19;100812.81;;;12.99
74060;BMP280;62414;53.436;8.828;2022-11-03T10:19:47;100811.34;;;13.07
74060;BMP280;62414;53.436;8.828;2022-11-03T10:22:13;100824.16;;;13.07
74060;BMP280;62414;53.436;8.828;2022-11-03T10:24:39;100811.16;;;13.02
74060;BMP280;62414;53.436;8.828;2022-11-03T10:27:19;100817.63;;;12.95
74060;BMP280;62414;53.436;8.828;2022-11-03T10:29:45;100810.56;;;12.98
74060;BMP280;62414;53.436;8.828;2022-11-03T10:32:28;100799.44;;;13.05
74060;BMP280;62414;53.436;8.828;2022-11-03T10:34:54;100806.50;;;13.02
74060;BMP280;62414;53.436;8.828;2022-11-03T10:37:22;100804.28;;;13.10
74060;BMP280;62414;53.436;8.828;2022-11-03T10:39:49;100800.22;;;13.15
74060;BMP280;62414;53.436;8.828;2022-11-03T10:42:20;100796.34;;;13.25
74060;BMP280;62414;53.436;8.828;2022-11-03T10:44:46;100789.53;;;13.29
74060;BMP280;62414;53.436;8.828;2022-11-03T10:47:22;100783.66;;;13.40
74060;BMP280;62414;53.436;8.828;2022-11-03T10:49:48;100784.47;;;13.50
74060;BMP280;62414;53.436;8.828;2022-11-03T10:52:17;100787.94;;;13.59
74060;BMP280;62414;53.436;8.828;2022-11-03T10:54:44;100783.13;;;13.63
74060;BMP280;62414;53.436;8.828;2022-11-03T10:57:09;100774.22;;;13.63
74060;BMP280;62414;53.436;8.828;2022-11-03T10:59:37;100771.34;;;13.57
74060;BMP280;62414;53.436;8.828;2022-11-03T11:02:12;100763.47;;;13.59
74060;BMP280;62414;53.436;8.828;2022-11-03T11:04:38;100761.50;;;13.51
74060;BMP280;62414;53.436;8.828;2022-11-03T11:07:14;100752.59;;;13.50
74060;BMP280;62414;53.436;8.828;2022-11-03T11:09:42;100748.19;;;13.44
74060;BMP280;62414;53.436;8.828;2022-11-03T11:12:15;100749.38;;;13.33
74060;BMP280;62414;53.436;8.828;2022-11-03T11:14:53;100744.97;;;13.27
74060;BMP280;62414;53.436;8.828;2022-11-03T11:17:38;100742.25;;;13.18
74060;BMP280;62414;53.436;8.828;2022-11-03T11:20:29;100739.22;;;13.16
74060;BMP280;62414;53.436;8.828;2022-11-03T11:22:54;100737.69;;;13.15
74060;BMP280;62414;53.436;8.828;2022-11-03T11:28:22;100721.13;;;13.40
74060;BMP280;62414;53.436;8.828;2022-11-03T11:30:57;100720.13;;;13.56
74060;BMP280;62414;53.436;8.828;2022-11-03T11:33:24;100722.25;;;13.79
74060;BMP280;62414;53.436;8.828;2022-11-03T11:39:00;100698.78;;;13.91
74060;BMP280;62414;53.436;8.828;2022-11-03T11:44:53;100693.94;;;14.04
74060;BMP280;62414;53.436;8.828;2022-11-03T11:47:29;100693.19;;;14.13
74060;BMP280;62414;53.436;8.828;2022-11-03T11:50:26;100676.50;;;14.29
74060;BMP280;62414;53.436;8.828;2022-11-03T11:52:56;100684.78;;;14.35
74060;BMP280;62414;53.436;8.828;2022-11-03T11:55:29;100669.38;;;14.41
74060;BMP280;62414;53.436;8.828;2022-11-03T11:57:55;100663.06;;;14.25
74060;BMP280;62414;53.436;8.828;2022-11-03T12:00:25;100660.50;;;14.22
74060;BMP280;62414;53.436;8.828;2022-11-03T12:02:51;100653.88;;;14.14
74060;BMP280;62414;53.436;8.828;2022-11-03T12:05:22;100642.38;;;14.10
74060;BMP280;62414;53.436;8.828;2022-11-03T12:07:47;100643.41;;;14.12
74060;BMP280;62414;53.436;8.828;2022-11-03T12:10:14;100641.91;;;14.11
74060;BMP280;62414;53.436;8.828;2022-11-03T12:12:40;100637.50;;;14.23
74060;BMP280;62414;53.436;8.828;2022-11-03T12:18:31;100630.84;;;14.15
74060;BMP280;62414;53.436;8.828;2022-11-03T12:20:58;100628.41;;;14.17
74060;BMP280;62414;53.436;8.828;2022-11-03T12:23:37;100627.81;;;14.22
74060;BMP280;62414;53.436;8.828;2022-11-03T12:26:04;100631.59;;;14.24
74060;BMP280;62414;53.436;8.828;2022-11-03T12:28:31;100621.47;;;14.25
74060;BMP280;62414;53.436;8.828;2022-11-03T12:30:56;100632.34;;;14.25
74060;BMP280;62414;53.436;8.828;2022-11-03T12:33:22;100620.69;;;14.24
74060;BMP280;62414;53.436;8.828;2022-11-03T12:35:48;100619.59;;;14.31
74060;BMP280;62414;53.436;8.828;2022-11-03T12:38:14;100615.38;;;14.30
74060;BMP280;62414;53.436;8.828;2022-11-03T12:40:39;100615.84;;;14.28
74060;BMP280;62414;53.436;8.828;2022-11-03T12:43:05;100610.41;;;14.28
74060;BMP280;62414;53.436;8.828;2022-11-03T12:45:30;100599.63;;;14.34
74060;BMP280;62414;53.436;8.828;2022-11-03T12:47:56;100596.03;;;14.28
74060;BMP280;62414;53.436;8.828;2022-11-03T12:50:21;100589.25;;;14.23
74060;BMP280;62414;53.436;8.828;2022-11-03T12:52:48;100579.28;;;14.11
74060;BMP280;62414;53.436;8.828;2022-11-03T12:55:13;100572.78;;;14.18
74060;BMP280;62414;53.436;8.828;2022-11-03T12:57:39;100570.16;;;14.33
74060;BMP280;62414;53.436;8.828;2022-11-03T13:00:05;100568.13;;;14.42
74060;BMP280;62414;53.436;8.828;2022-11-03T13:02:31;100561.34;;;14.38
74060;BMP280;62414;53.436;8.828;2022-11-03T13:04:56;100554.81;;;14.44
74060;BMP280;62414;53.436;8.828;2022-11-03T13:07:22;100558.75;;;14.43
74060;BMP280;62414;53.436;8.828;2022-11-03T13:09:49;100560.53;;;14.46
74060;BMP280;62414;53.436;8.828;2022-11-03T13:12:14;100565.41;;;14.42
74060;BMP280;62414;53.436;8.828;2022-11-03T13:14:39;100561.34;;;14.38
74060;BMP280;62414;53.436;8.828;2022-11-03T13:17:05;100549.28;;;14.30
74060;BMP280;62414;53.436;8.828;2022-11-03T13:19:30;100557.16;;;14.27
74060;BMP280;62414;53.436;8.828;2022-11-03T13:21:56;100550.88;;;14.12
74060;BMP280;62414;53.436;8.828;2022-11-03T13:24:21;100545.59;;;14.09
74060;BMP280;62414;53.436;8.828;2022-11-03T13:26:48;100528.34;;;14.03
74060;BMP280;62414;53.436;8.828;2022-11-03T13:29:13;100539.47;;;13.90
74060;BMP280;62414;53.436;8.828;2022-11-03T13:31:39;100536.91;;;13.86
74060;BMP280;62414;53.436;8.828;2022-11-03T13:34:04;100541.63;;;13.77
74060;BMP280;62414;53.436;8.828;2022-11-03T13:36:30;100527.75;;;13.75
74060;BMP280;62414;53.436;8.828;2022-11-03T13:38:55;100519.00;;;13.61
74060;BMP280;62414;53.436;8.828;2022-11-03T13:41:20;100508.56;;;13.60
74060;BMP280;62414;53.436;8.828;2022-11-03T13:43:47;100502.97;;;13.54
74060;BMP280;62414;53.436;8.828;2022-11-03T13:46:13;100490.94;;;13.46
74060;BMP280;62414;53.436;8.828;2022-11-03T13:48:38;100482.94;;;13.43
74060;BMP280;62414;53.436;8.828;2022-11-03T13:51:03;100492.09;;;13.45
74060;BMP280;62414;53.436;8.828;2022-11-03T13:53:29;100481.56;;;13.47
74060;BMP280;62414;53.436;8.828;2022-11-03T13:55:54;100471.91;;;13.46
74060;BMP280;62414;53.436;8.828;2022-11-03T13:58:20;100462.69;;;13.44
74060;BMP280;62414;53.436;8.828;2022-11-03T14:00:47;100457.53;;;13.46
74060;BMP280;62414;53.436;8.828;2022-11-03T14:03:12;100452.28;;;13.42
74060;BMP280;62414;53.436;8.828;2022-11-03T14:05:37;100449.84;;;13.35
74060;BMP280;62414;53.436;8.828;2022-11-03T14:08:03;100443.69;;;13.25
74060;BMP280;62414;53.436;8.828;2022-11-03T14:10:28;100440.09;;;13.19
74060;BMP280;62414;53.436;8.828;2022-11-03T14:12:54;100432.53;;;13.23
74060;BMP280;62414;53.436;8.828;2022-11-03T14:15:19;100413.66;;;13.20
74060;BMP280;62414;53.436;8.828;2022-11-03T14:17:46;100408.38;;;13.16
74060;BMP280;62414;53.436;8.828;2022-11-03T14:20:12;100410.22;;;13.10